FLASH12 ETNL-ETNL
Flight info
| Callsign | FLASH12 |
|---|---|
| Flight time | N/A |
| Altitude | 35000 |
| Route | NL227 ROSOK M726 SALLO REMSA DCT ESS1 STAY01/0040 ESS1 DCT REMSA STAY02/0030 REMSA UNGAV M864 PEROM LAG |
| Aircraft | VF35/M-SDRTUY/LB1 |
Departure
| Time | 2026-04-24 20:16 |
|---|---|
| Airport | Rostock-Laage Airport (ETNL) |
Arrival
| Time | N/A |
|---|---|
| Airport | Rostock-Laage Airport (ETNL) |
| Time | Latitude | Longitude | Altitude | Speed | Heading |
|---|---|---|---|---|---|
| 2026-04-24 19:50 | 53.92165 | 12.26767 | 153 ft | 0 kts | 151° |
| 2026-04-24 19:59 | 53.92191 | 12.26689 | 151 ft | 0 kts | 236° |
| 2026-04-24 19:59 | 53.92171 | 12.26679 | 153 ft | 0 kts | 158° |
| 2026-04-24 20:06 | 53.92168 | 12.26682 | 153 ft | 0 kts | 158° |
| 2026-04-24 20:06 | 53.92166 | 12.26683 | 153 ft | 3 kts | 155° |
| 2026-04-24 20:06 | 53.92149 | 12.26756 | 154 ft | 10 kts | 98° |
| 2026-04-24 20:07 | 53.92140 | 12.26891 | 153 ft | 23 kts | 97° |
| 2026-04-24 20:07 | 53.92122 | 12.27082 | 153 ft | 8 kts | 82° |
| 2026-04-24 20:07 | 53.92168 | 12.27177 | 149 ft | 12 kts | 81° |
| 2026-04-24 20:07 | 53.92160 | 12.27336 | 146 ft | 17 kts | 95° |
| 2026-04-24 20:08 | 53.92146 | 12.27583 | 142 ft | 22 kts | 95° |
| 2026-04-24 20:08 | 53.92128 | 12.27842 | 139 ft | 22 kts | 99° |
| 2026-04-24 20:08 | 53.92105 | 12.28093 | 141 ft | 20 kts | 99° |
| 2026-04-24 20:08 | 53.92085 | 12.28318 | 141 ft | 19 kts | 98° |
| 2026-04-24 20:09 | 53.92067 | 12.28579 | 142 ft | 24 kts | 99° |
| 2026-04-24 20:09 | 53.92041 | 12.28853 | 141 ft | 24 kts | 99° |
| 2026-04-24 20:09 | 53.92019 | 12.29126 | 139 ft | 21 kts | 97° |
| 2026-04-24 20:09 | 53.91951 | 12.29260 | 140 ft | 12 kts | 105° |
| 2026-04-24 20:10 | 53.91937 | 12.29426 | 142 ft | 14 kts | 98° |
| 2026-04-24 20:10 | 53.91923 | 12.29588 | 142 ft | 14 kts | 95° |
| 2026-04-24 20:10 | 53.91920 | 12.29727 | 143 ft | 5 kts | 53° |
| 2026-04-24 20:10 | 53.91937 | 12.29768 | 142 ft | 0 kts | 60° |
| 2026-04-24 20:12 | 53.91938 | 12.29769 | 142 ft | 2 kts | 60° |
| 2026-04-24 20:12 | 53.91967 | 12.29805 | 140 ft | 3 kts | 84° |
| 2026-04-24 20:12 | 53.91966 | 12.29814 | 140 ft | 0 kts | 102° |
| 2026-04-24 20:14 | 53.91921 | 12.29818 | 143 ft | 12 kts | 196° |
| 2026-04-24 20:14 | 53.91818 | 12.29797 | 151 ft | 9 kts | 180° |
| 2026-04-24 20:14 | 53.91798 | 12.29797 | 153 ft | 0 kts | 180° |
| 2026-04-24 20:14 | 53.91765 | 12.29798 | 154 ft | 9 kts | 177° |
| 2026-04-24 20:15 | 53.91679 | 12.29795 | 147 ft | 12 kts | 195° |
| 2026-04-24 20:15 | 53.91659 | 12.29680 | 151 ft | 12 kts | 277° |
| 2026-04-24 20:15 | 53.91664 | 12.29614 | 151 ft | 1 kts | 278° |
| 2026-04-24 20:15 | 53.91740 | 12.28655 | 148 ft | 176 kts | 277° |
| 2026-04-24 20:16 | 53.91924 | 12.25690 | 961 ft | 302 kts | 275° |
| 2026-04-24 20:16 | 53.92050 | 12.21683 | 2855 ft | 306 kts | 267° |
| 2026-04-24 20:16 | 53.91685 | 12.18810 | 4225 ft | 253 kts | 249° |
| 2026-04-24 20:16 | 53.90592 | 12.16788 | 5124 ft | 230 kts | 227° |
| 2026-04-24 20:17 | 53.89842 | 12.14450 | 7153 ft | 274 kts | 261° |
| 2026-04-24 20:17 | 53.89468 | 12.05825 | 12523 ft | 420 kts | 296° |
| 2026-04-24 20:17 | 53.91326 | 12.01864 | 15892 ft | 407 kts | 323° |
| 2026-04-24 20:18 | 53.92693 | 12.00056 | 17275 ft | 355 kts | 320° |
| 2026-04-24 20:18 | 53.95626 | 11.97185 | 17232 ft | 389 kts | 339° |
| 2026-04-24 20:18 | 53.98452 | 11.96168 | 18068 ft | 452 kts | 350° |
| 2026-04-24 20:18 | 54.01935 | 11.96301 | 18441 ft | 554 kts | 7° |
| 2026-04-24 20:19 | 54.05535 | 11.97508 | 18496 ft | 464 kts | 9° |
| 2026-04-24 20:19 | 54.08142 | 11.98822 | 18887 ft | 332 kts | 13° |
| 2026-04-24 20:19 | 54.10130 | 12.00020 | 19545 ft | 276 kts | 13° |
| 2026-04-24 20:19 | 54.11804 | 12.01102 | 19738 ft | 244 kts | 13° |
| 2026-04-24 20:20 | 54.13386 | 12.02068 | 19096 ft | 243 kts | 12° |
| 2026-04-24 20:20 | 54.15068 | 12.03042 | 17551 ft | 268 kts | 3° |
| 2026-04-24 20:20 | 54.16507 | 12.02079 | 16660 ft | 200 kts | 295° |
| 2026-04-24 20:20 | 54.16085 | 12.00244 | 16636 ft | 205 kts | 207° |
| 2026-04-24 20:21 | 54.14513 | 12.00788 | 17452 ft | 246 kts | 133° |
| 2026-04-24 20:21 | 54.13833 | 12.03184 | 18776 ft | 215 kts | 86° |
| 2026-04-24 20:21 | 54.14222 | 12.05637 | 19916 ft | 214 kts | 49° |
| 2026-04-24 20:21 | 54.15044 | 12.07617 | 20737 ft | 201 kts | 39° |
| 2026-04-24 20:22 | 54.16086 | 12.09518 | 21895 ft | 225 kts | 31° |
| 2026-04-24 20:22 | 54.17389 | 12.11304 | 23717 ft | 244 kts | 22° |
| 2026-04-24 20:22 | 54.18864 | 12.12903 | 24392 ft | 264 kts | 22° |
| 2026-04-24 20:22 | 54.20511 | 12.14713 | 24863 ft | 294 kts | 25° |
| 2026-04-24 20:23 | 54.22259 | 12.16726 | 25713 ft | 321 kts | 23° |
| 2026-04-24 20:23 | 54.24388 | 12.18777 | 25520 ft | 387 kts | 16° |
| 2026-04-24 20:23 | 54.27019 | 12.20573 | 26208 ft | 416 kts | 14° |
| 2026-04-24 20:23 | 54.29712 | 12.23112 | 27287 ft | 468 kts | 27° |
| 2026-04-24 20:24 | 54.32552 | 12.26369 | 28030 ft | 528 kts | 27° |
| 2026-04-24 20:24 | 54.35800 | 12.29979 | 28554 ft | 561 kts | 25° |
| 2026-04-24 20:24 | 54.39096 | 12.33509 | 28847 ft | 570 kts | 28° |
| 2026-04-24 20:24 | 54.42474 | 12.37179 | 28186 ft | 581 kts | 29° |
| 2026-04-24 20:25 | 54.45923 | 12.40954 | 25868 ft | 586 kts | 31° |
| 2026-04-24 20:25 | 54.48949 | 12.45236 | 27657 ft | 558 kts | 40° |
| 2026-04-24 20:25 | 54.51641 | 12.50084 | 29430 ft | 565 kts | 44° |
| 2026-04-24 20:25 | 54.54236 | 12.55234 | 30205 ft | 574 kts | 46° |
| 2026-04-24 20:26 | 54.56933 | 12.60320 | 30578 ft | 571 kts | 40° |
| 2026-04-24 20:26 | 54.59766 | 12.64942 | 32156 ft | 549 kts | 40° |
| 2026-04-24 20:26 | 54.62371 | 12.69742 | 33926 ft | 557 kts | 44° |
| 2026-04-24 20:26 | 54.64995 | 12.74821 | 33954 ft | 570 kts | 45° |
| 2026-04-24 20:27 | 54.67596 | 12.80073 | 33609 ft | 576 kts | 46° |
| 2026-04-24 20:27 | 54.70175 | 12.85371 | 33376 ft | 575 kts | 46° |
| 2026-04-24 20:27 | 54.75423 | 12.95743 | 33545 ft | 569 kts | 41° |
| 2026-04-24 20:28 | 54.78092 | 13.00409 | 34438 ft | 483 kts | 44° |
| 2026-04-24 20:28 | 54.79939 | 13.04401 | 35209 ft | 384 kts | 43° |
| 2026-04-24 20:28 | 54.81596 | 13.07579 | 35213 ft | 330 kts | 39° |
| 2026-04-24 20:28 | 54.83014 | 13.10260 | 35022 ft | 276 kts | 38° |
| 2026-04-24 20:29 | 54.83853 | 13.11853 | 34831 ft | 276 kts | 38° |
| 2026-04-24 20:29 | 54.85933 | 13.15365 | 34672 ft | 352 kts | 33° |
| 2026-04-24 20:29 | 54.88009 | 13.18395 | 34709 ft | 426 kts | 34° |
| 2026-04-24 20:29 | 54.90323 | 13.21882 | 34678 ft | 471 kts | 36° |
| 2026-04-24 20:30 | 54.93024 | 13.25448 | 34810 ft | 495 kts | 29° |
| 2026-04-24 20:30 | 54.95784 | 13.28840 | 34958 ft | 506 kts | 30° |
| 2026-04-24 20:30 | 54.98941 | 13.32457 | 34836 ft | 556 kts | 27° |
| 2026-04-24 20:30 | 55.02232 | 13.36002 | 34788 ft | 556 kts | 27° |
| 2026-04-24 20:31 | 55.05523 | 13.39514 | 34929 ft | 550 kts | 26° |
| 2026-04-24 20:31 | 55.08707 | 13.42953 | 35077 ft | 536 kts | 25° |
| 2026-04-24 20:31 | 55.15222 | 13.49524 | 35105 ft | 549 kts | 32° |
| 2026-04-24 20:32 | 55.18294 | 13.53630 | 35064 ft | 563 kts | 34° |
| 2026-04-24 20:32 | 55.21283 | 13.58089 | 34936 ft | 570 kts | 35° |
| 2026-04-24 20:32 | 55.27366 | 13.66891 | 34964 ft | 559 kts | 36° |
| 2026-04-24 20:33 | 55.30224 | 13.71426 | 34849 ft | 551 kts | 37° |
| 2026-04-24 20:33 | 55.32835 | 13.76407 | 34905 ft | 557 kts | 43° |
| 2026-04-24 20:33 | 55.37933 | 13.86792 | 35008 ft | 562 kts | 44° |
| 2026-04-24 20:34 | 55.42815 | 13.97569 | 34942 ft | 560 kts | 44° |
| 2026-04-24 20:34 | 55.47798 | 14.08164 | 34951 ft | 564 kts | 46° |
| 2026-04-24 20:35 | 55.52721 | 14.18969 | 34945 ft | 560 kts | 46° |
| 2026-04-24 20:35 | 55.57617 | 14.29750 | 34933 ft | 562 kts | 45° |
| 2026-04-24 20:36 | 55.62495 | 14.40551 | 34954 ft | 562 kts | 45° |
| 2026-04-24 20:36 | 55.67338 | 14.51399 | 34943 ft | 562 kts | 46° |
| 2026-04-24 20:37 | 55.72153 | 14.62326 | 34909 ft | 562 kts | 46° |
| 2026-04-24 20:37 | 55.77073 | 14.73043 | 34897 ft | 560 kts | 45° |
| 2026-04-24 20:38 | 55.82126 | 14.83491 | 34886 ft | 557 kts | 42° |
| 2026-04-24 20:38 | 55.87231 | 14.93876 | 34997 ft | 557 kts | 42° |
| 2026-04-24 20:39 | 55.92344 | 15.04284 | 35079 ft | 558 kts | 42° |
| 2026-04-24 20:39 | 55.97487 | 15.14619 | 35200 ft | 558 kts | 41° |
| 2026-04-24 20:40 | 56.02772 | 15.24799 | 35309 ft | 554 kts | 36° |
| 2026-04-24 20:40 | 56.05688 | 15.29287 | 35148 ft | 552 kts | 34° |
| 2026-04-24 20:40 | 56.08564 | 15.33814 | 34999 ft | 552 kts | 38° |
| 2026-04-24 20:41 | 56.11167 | 15.38898 | 34894 ft | 554 kts | 43° |
| 2026-04-24 20:41 | 56.13663 | 15.44182 | 34819 ft | 556 kts | 44° |
| 2026-04-24 20:41 | 56.18505 | 15.55013 | 34748 ft | 556 kts | 45° |
| 2026-04-24 20:42 | 56.23281 | 15.65769 | 34678 ft | 552 kts | 43° |
| 2026-04-24 20:42 | 56.28872 | 15.74966 | 34591 ft | 533 kts | 26° |
| 2026-04-24 20:43 | 56.35166 | 15.81742 | 34467 ft | 544 kts | 43° |
| 2026-04-24 20:43 | 56.39996 | 15.92212 | 34554 ft | 547 kts | 39° |
| 2026-04-24 20:44 | 56.45203 | 16.02173 | 34774 ft | 545 kts | 41° |
| 2026-04-24 20:44 | 56.47836 | 16.07313 | 34810 ft | 573 kts | 40° |
| 2026-04-24 20:44 | 56.50545 | 16.12452 | 34906 ft | 558 kts | 39° |
| 2026-04-24 20:45 | 56.53295 | 16.17594 | 34808 ft | 570 kts | 40° |
| 2026-04-24 20:45 | 56.56002 | 16.22778 | 34855 ft | 562 kts | 40° |
| 2026-04-24 20:45 | 56.58694 | 16.27847 | 35108 ft | 557 kts | 40° |
| 2026-04-24 20:45 | 56.61364 | 16.32976 | 35028 ft | 561 kts | 40° |
| 2026-04-24 20:46 | 56.64081 | 16.38062 | 34215 ft | 559 kts | 39° |
| 2026-04-24 20:46 | 56.66880 | 16.42993 | 33528 ft | 558 kts | 34° |
| 2026-04-24 20:46 | 56.69635 | 16.47605 | 32862 ft | 517 kts | 36° |
| 2026-04-24 20:46 | 56.72287 | 16.52055 | 32163 ft | 515 kts | 35° |
| 2026-04-24 20:47 | 56.74893 | 16.56445 | 31659 ft | 509 kts | 36° |
| 2026-04-24 20:47 | 56.77459 | 16.60850 | 31158 ft | 503 kts | 36° |
| 2026-04-24 20:47 | 56.80005 | 16.65167 | 30635 ft | 496 kts | 35° |
| 2026-04-24 20:47 | 56.82500 | 16.69465 | 30088 ft | 488 kts | 35° |
| 2026-04-24 20:48 | 56.84977 | 16.73700 | 29931 ft | 491 kts | 36° |
| 2026-04-24 20:48 | 56.86604 | 16.76582 | 29898 ft | 491 kts | 40° |
| 2026-04-24 20:48 | 56.88414 | 16.82022 | 29380 ft | 521 kts | 67° |
| 2026-04-24 20:48 | 56.89097 | 16.88529 | 28803 ft | 512 kts | 71° |
| 2026-04-24 20:49 | 56.89981 | 16.97119 | 29125 ft | 522 kts | 71° |
| 2026-04-24 20:49 | 56.90438 | 17.01534 | 29244 ft | 521 kts | 72° |
| 2026-04-24 20:49 | 56.91351 | 17.10201 | 29620 ft | 528 kts | 72° |
| 2026-04-24 20:49 | 56.91827 | 17.14674 | 29253 ft | 523 kts | 71° |
| 2026-04-24 20:50 | 56.92522 | 17.21181 | 28445 ft | 515 kts | 72° |
| 2026-04-24 20:50 | 56.93241 | 17.27444 | 27661 ft | 507 kts | 71° |
| 2026-04-24 20:50 | 56.93890 | 17.33740 | 26782 ft | 499 kts | 75° |
| 2026-04-24 20:50 | 56.94668 | 17.39817 | 25932 ft | 485 kts | 68° |
| 2026-04-24 20:51 | 56.94950 | 17.46045 | 25402 ft | 497 kts | 88° |
| 2026-04-24 20:51 | 56.94211 | 17.52218 | 24784 ft | 504 kts | 106° |
| 2026-04-24 20:51 | 56.92396 | 17.57614 | 24515 ft | 515 kts | 128° |
| 2026-04-24 20:51 | 56.89680 | 17.61660 | 24094 ft | 505 kts | 154° |
| 2026-04-24 20:52 | 56.86332 | 17.63431 | 23917 ft | 505 kts | 173° |
| 2026-04-24 20:52 | 56.82899 | 17.64218 | 23562 ft | 493 kts | 180° |
| 2026-04-24 20:52 | 56.79534 | 17.63570 | 23166 ft | 485 kts | 196° |
| 2026-04-24 20:52 | 56.76262 | 17.62143 | 22774 ft | 481 kts | 201° |
| 2026-04-24 20:53 | 56.73123 | 17.60128 | 22720 ft | 478 kts | 204° |
| 2026-04-24 20:53 | 56.70025 | 17.57927 | 22897 ft | 477 kts | 207° |
| 2026-04-24 20:53 | 56.67002 | 17.55380 | 23152 ft | 479 kts | 212° |
| 2026-04-24 20:53 | 56.64172 | 17.52252 | 23137 ft | 475 kts | 220° |
| 2026-04-24 20:54 | 56.61575 | 17.48627 | 23128 ft | 469 kts | 223° |
| 2026-04-24 20:54 | 56.58999 | 17.45026 | 23252 ft | 473 kts | 223° |
| 2026-04-24 20:54 | 56.56391 | 17.41354 | 23366 ft | 499 kts | 224° |
| 2026-04-24 20:54 | 56.53368 | 17.36880 | 23546 ft | 589 kts | 224° |
| 2026-04-24 20:55 | 56.50174 | 17.32113 | 23582 ft | 599 kts | 224° |
| 2026-04-24 20:55 | 56.46881 | 17.27461 | 23627 ft | 599 kts | 224° |
| 2026-04-24 20:55 | 56.43788 | 17.22485 | 23798 ft | 585 kts | 230° |
| 2026-04-24 20:55 | 56.40898 | 17.17284 | 23962 ft | 591 kts | 231° |
| 2026-04-24 20:56 | 56.37995 | 17.12017 | 24083 ft | 591 kts | 231° |
| 2026-04-24 20:56 | 56.35155 | 17.06720 | 24112 ft | 591 kts | 232° |
| 2026-04-24 20:56 | 56.32339 | 17.01208 | 23800 ft | 594 kts | 233° |
| 2026-04-24 20:56 | 56.29549 | 16.95788 | 23477 ft | 573 kts | 233° |
| 2026-04-24 20:57 | 56.26867 | 16.90571 | 22820 ft | 559 kts | 234° |
| 2026-04-24 20:57 | 56.24307 | 16.85329 | 22725 ft | 558 kts | 235° |
| 2026-04-24 20:57 | 56.21851 | 16.80071 | 22710 ft | 559 kts | 237° |
| 2026-04-24 20:57 | 56.19410 | 16.74629 | 22705 ft | 558 kts | 237° |
| 2026-04-24 20:58 | 56.16970 | 16.69183 | 22517 ft | 559 kts | 239° |
| 2026-04-24 20:58 | 56.14665 | 16.63646 | 22293 ft | 554 kts | 236° |
| 2026-04-24 20:58 | 56.12042 | 16.58495 | 22357 ft | 562 kts | 231° |
| 2026-04-24 20:58 | 56.09475 | 16.53913 | 23052 ft | 473 kts | 234° |
| 2026-04-24 20:59 | 56.07383 | 16.49770 | 23260 ft | 444 kts | 236° |
| 2026-04-24 20:59 | 56.05301 | 16.45778 | 23487 ft | 426 kts | 235° |
| 2026-04-24 20:59 | 56.03386 | 16.42094 | 23712 ft | 383 kts | 236° |
| 2026-04-24 20:59 | 56.01586 | 16.38592 | 23839 ft | 399 kts | 237° |
| 2026-04-24 21:00 | 55.99746 | 16.34987 | 23852 ft | 394 kts | 236° |
| 2026-04-24 21:00 | 55.97866 | 16.31498 | 23358 ft | 387 kts | 234° |
| 2026-04-24 21:00 | 55.95981 | 16.28066 | 22997 ft | 385 kts | 234° |
| 2026-04-24 21:00 | 55.94130 | 16.24676 | 22913 ft | 382 kts | 235° |
| 2026-04-24 21:01 | 55.92314 | 16.21285 | 22898 ft | 381 kts | 235° |
| 2026-04-24 21:01 | 55.90433 | 16.17733 | 22919 ft | 409 kts | 235° |
| 2026-04-24 21:01 | 55.88577 | 16.14031 | 22963 ft | 400 kts | 238° |
| 2026-04-24 21:01 | 55.86751 | 16.10284 | 22990 ft | 401 kts | 236° |
| 2026-04-24 21:02 | 55.84839 | 16.06676 | 22936 ft | 401 kts | 235° |
| 2026-04-24 21:02 | 55.82917 | 16.03071 | 22899 ft | 400 kts | 235° |
| 2026-04-24 21:02 | 55.81016 | 15.99473 | 22867 ft | 399 kts | 235° |
| 2026-04-24 21:02 | 55.79122 | 15.95848 | 22865 ft | 398 kts | 236° |
| 2026-04-24 21:03 | 55.77255 | 15.92219 | 22898 ft | 398 kts | 236° |
| 2026-04-24 21:03 | 55.75404 | 15.88621 | 22967 ft | 378 kts | 236° |
| 2026-04-24 21:03 | 55.73532 | 15.84984 | 23189 ft | 398 kts | 236° |
| 2026-04-24 21:03 | 55.71653 | 15.81334 | 23308 ft | 403 kts | 236° |
| 2026-04-24 21:04 | 55.69804 | 15.77650 | 23282 ft | 396 kts | 240° |
| 2026-04-24 21:04 | 55.68714 | 15.73407 | 23009 ft | 373 kts | 265° |
| 2026-04-24 21:04 | 55.68375 | 15.68946 | 22697 ft | 360 kts | 274° |
| 2026-04-24 21:04 | 55.68721 | 15.64798 | 22638 ft | 336 kts | 299° |
| 2026-04-24 21:05 | 55.70125 | 15.61498 | 22734 ft | 333 kts | 316° |
| 2026-04-24 21:05 | 55.71885 | 15.58838 | 22993 ft | 335 kts | 328° |
| 2026-04-24 21:05 | 55.74068 | 15.57511 | 23369 ft | 345 kts | 348° |
| 2026-04-24 21:05 | 55.76511 | 15.57543 | 23462 ft | 354 kts | 1° |
| 2026-04-24 21:06 | 55.78910 | 15.58522 | 23576 ft | 356 kts | 21° |
| 2026-04-24 21:06 | 55.80996 | 15.61746 | 23557 ft | 438 kts | 37° |
| 2026-04-24 21:06 | 55.82994 | 15.66472 | 23588 ft | 515 kts | 56° |
| 2026-04-24 21:06 | 55.84504 | 15.71730 | 23935 ft | 423 kts | 57° |
| 2026-04-24 21:07 | 55.85671 | 15.76250 | 23790 ft | 409 kts | 56° |
| 2026-04-24 21:07 | 55.86935 | 15.80914 | 23817 ft | 410 kts | 56° |
| 2026-04-24 21:07 | 55.88143 | 15.85406 | 23801 ft | 402 kts | 56° |
| 2026-04-24 21:07 | 55.89407 | 15.90066 | 23817 ft | 429 kts | 56° |
| 2026-04-24 21:08 | 55.90656 | 15.94699 | 23873 ft | 407 kts | 56° |
| 2026-04-24 21:08 | 55.91832 | 15.99127 | 23868 ft | 389 kts | 57° |
| 2026-04-24 21:08 | 55.93059 | 16.03645 | 23878 ft | 413 kts | 53° |
| 2026-04-24 21:08 | 55.94568 | 16.08006 | 23867 ft | 404 kts | 46° |
| 2026-04-24 21:09 | 55.96084 | 16.11932 | 23836 ft | 383 kts | 46° |
| 2026-04-24 21:09 | 55.97669 | 16.15999 | 23835 ft | 396 kts | 47° |
| 2026-04-24 21:09 | 55.99204 | 16.19919 | 23822 ft | 397 kts | 46° |
| 2026-04-24 21:09 | 56.00829 | 16.24117 | 23866 ft | 385 kts | 46° |
| 2026-04-24 21:10 | 56.02417 | 16.28191 | 23864 ft | 412 kts | 46° |
| 2026-04-24 21:10 | 56.03946 | 16.32185 | 23849 ft | 378 kts | 47° |
| 2026-04-24 21:10 | 56.05508 | 16.36147 | 23826 ft | 393 kts | 48° |
| 2026-04-24 21:10 | 56.07079 | 16.40203 | 23835 ft | 394 kts | 46° |
| 2026-04-24 21:11 | 56.08660 | 16.44267 | 23866 ft | 388 kts | 47° |
| 2026-04-24 21:11 | 56.10163 | 16.48156 | 23830 ft | 387 kts | 47° |
| 2026-04-24 21:11 | 56.11715 | 16.52155 | 23841 ft | 386 kts | 46° |
| 2026-04-24 21:11 | 56.13312 | 16.56245 | 23859 ft | 403 kts | 46° |
| 2026-04-24 21:12 | 56.14875 | 16.60257 | 23843 ft | 389 kts | 46° |
| 2026-04-24 21:12 | 56.15915 | 16.62935 | 23871 ft | 405 kts | 46° |
| 2026-04-24 21:12 | 56.18011 | 16.68342 | 23877 ft | 396 kts | 46° |
| 2026-04-24 21:12 | 56.19499 | 16.72220 | 23850 ft | 401 kts | 46° |
| 2026-04-24 21:13 | 56.21121 | 16.76394 | 23888 ft | 393 kts | 46° |
| 2026-04-24 21:13 | 56.22684 | 16.80432 | 23894 ft | 391 kts | 47° |
| 2026-04-24 21:13 | 56.24226 | 16.84442 | 23869 ft | 392 kts | 46° |
| 2026-04-24 21:13 | 56.25792 | 16.88458 | 23887 ft | 388 kts | 46° |
| 2026-04-24 21:14 | 56.27339 | 16.92437 | 23874 ft | 390 kts | 46° |
| 2026-04-24 21:14 | 56.28901 | 16.96457 | 23881 ft | 390 kts | 46° |
| 2026-04-24 21:14 | 56.30449 | 17.00446 | 23889 ft | 390 kts | 46° |
| 2026-04-24 21:14 | 56.32013 | 17.04470 | 23886 ft | 392 kts | 46° |
| 2026-04-24 21:15 | 56.33542 | 17.08427 | 23894 ft | 388 kts | 46° |
| 2026-04-24 21:15 | 56.35093 | 17.12433 | 23888 ft | 391 kts | 47° |
| 2026-04-24 21:15 | 56.36638 | 17.16446 | 23902 ft | 389 kts | 47° |
| 2026-04-24 21:15 | 56.38192 | 17.20459 | 23873 ft | 390 kts | 46° |
| 2026-04-24 21:16 | 56.39783 | 17.24419 | 23868 ft | 392 kts | 46° |
| 2026-04-24 21:16 | 56.41375 | 17.28442 | 23896 ft | 391 kts | 43° |
| 2026-04-24 21:16 | 56.43018 | 17.32408 | 23881 ft | 398 kts | 46° |
| 2026-04-24 21:16 | 56.44761 | 17.36111 | 23828 ft | 373 kts | 36° |
| 2026-04-24 21:17 | 56.46603 | 17.39273 | 23770 ft | 353 kts | 36° |
| 2026-04-24 21:17 | 56.48310 | 17.42304 | 23667 ft | 353 kts | 36° |
| 2026-04-24 21:17 | 56.50226 | 17.45680 | 23559 ft | 399 kts | 37° |
| 2026-04-24 21:17 | 56.51543 | 17.47924 | 23674 ft | 387 kts | 35° |
| 2026-04-24 21:18 | 56.54184 | 17.51815 | 23912 ft | 336 kts | 30° |
| 2026-04-24 21:18 | 56.56018 | 17.53888 | 23908 ft | 286 kts | 17° |
| 2026-04-24 21:18 | 56.57741 | 17.55445 | 23898 ft | 293 kts | 22° |
| 2026-04-24 21:18 | 56.59678 | 17.57559 | 23956 ft | 358 kts | 25° |
| 2026-04-24 21:19 | 56.61864 | 17.60622 | 24038 ft | 439 kts | 39° |
| 2026-04-24 21:19 | 56.64139 | 17.64675 | 24205 ft | 453 kts | 36° |
| 2026-04-24 21:19 | 56.66317 | 17.68406 | 24334 ft | 423 kts | 42° |
| 2026-04-24 21:19 | 56.67405 | 17.73329 | 24486 ft | 460 kts | 88° |
| 2026-04-24 21:20 | 56.62728 | 17.83194 | 23578 ft | 598 kts | 152° |
| 2026-04-24 21:20 | 56.58817 | 17.85809 | 23309 ft | 610 kts | 170° |
| 2026-04-24 21:20 | 56.54610 | 17.86018 | 23288 ft | 603 kts | 199° |
| 2026-04-24 21:21 | 56.51693 | 17.81515 | 23929 ft | 534 kts | 266° |
| 2026-04-24 21:21 | 56.52202 | 17.75237 | 24018 ft | 517 kts | 283° |
| 2026-04-24 21:21 | 56.52072 | 17.69594 | 24365 ft | 377 kts | 268° |
| 2026-04-24 21:21 | 56.52266 | 17.65833 | 24244 ft | 268 kts | 302° |
| 2026-04-24 21:22 | 56.52301 | 17.62213 | 23758 ft | 322 kts | 274° |
| 2026-04-24 21:22 | 56.52280 | 17.57739 | 23790 ft | 389 kts | 276° |
| 2026-04-24 21:22 | 56.52344 | 17.52874 | 24004 ft | 357 kts | 281° |
| 2026-04-24 21:22 | 56.52451 | 17.49917 | 24083 ft | 351 kts | 279° |
| 2026-04-24 21:23 | 56.52596 | 17.44027 | 24105 ft | 352 kts | 277° |
| 2026-04-24 21:23 | 56.52556 | 17.39591 | 24171 ft | 347 kts | 276° |
| 2026-04-24 21:23 | 56.52523 | 17.35271 | 24214 ft | 344 kts | 279° |
| 2026-04-24 21:23 | 56.52628 | 17.30927 | 24119 ft | 343 kts | 276° |
| 2026-04-24 21:24 | 56.52631 | 17.26529 | 24053 ft | 356 kts | 277° |
| 2026-04-24 21:24 | 56.52651 | 17.22081 | 24033 ft | 350 kts | 277° |
| 2026-04-24 21:24 | 56.52668 | 17.17675 | 24079 ft | 352 kts | 277° |
| 2026-04-24 21:24 | 56.52693 | 17.13238 | 24150 ft | 351 kts | 278° |
| 2026-04-24 21:25 | 56.52816 | 17.08846 | 24209 ft | 348 kts | 279° |
| 2026-04-24 21:25 | 56.52741 | 17.04427 | 24211 ft | 353 kts | 276° |
| 2026-04-24 21:25 | 56.52701 | 16.99952 | 24228 ft | 357 kts | 276° |
| 2026-04-24 21:25 | 56.52711 | 16.95481 | 23110 ft | 350 kts | 276° |
| 2026-04-24 21:26 | 56.53199 | 16.91435 | 22093 ft | 323 kts | 310° |
| 2026-04-24 21:26 | 56.54997 | 16.89156 | 20993 ft | 323 kts | 343° |
| 2026-04-24 21:26 | 56.57179 | 16.89562 | 19949 ft | 326 kts | 22° |
| 2026-04-24 21:26 | 56.59013 | 16.92228 | 19508 ft | 349 kts | 44° |
| 2026-04-24 21:27 | 56.60210 | 16.96164 | 19100 ft | 364 kts | 66° |
| 2026-04-24 21:27 | 56.60500 | 17.00799 | 18746 ft | 377 kts | 89° |
| 2026-04-24 21:27 | 56.60278 | 17.05550 | 18620 ft | 386 kts | 91° |
| 2026-04-24 21:27 | 56.60052 | 17.08912 | 18710 ft | 414 kts | 94° |
| 2026-04-24 21:28 | 56.59488 | 17.16801 | 18717 ft | 542 kts | 93° |
| 2026-04-24 21:28 | 56.58064 | 17.23536 | 18529 ft | 613 kts | 139° |
| 2026-04-24 21:28 | 56.56107 | 17.27743 | 23305 ft | 275 kts | 18° |
| 2026-04-24 21:28 | 56.57453 | 17.26298 | 22929 ft | 303 kts | 276° |
| 2026-04-24 21:29 | 56.56440 | 17.23089 | 18921 ft | 367 kts | 152° |
| 2026-04-24 21:29 | 56.55925 | 17.26675 | 17586 ft | 271 kts | 21° |
| 2026-04-24 21:29 | 56.57154 | 17.25294 | 18297 ft | 294 kts | 285° |
| 2026-04-24 21:29 | 56.56514 | 17.20542 | 17726 ft | 502 kts | 253° |
| 2026-04-24 21:30 | 56.55109 | 17.13936 | 18296 ft | 585 kts | 241° |
| 2026-04-24 21:30 | 56.52532 | 17.15219 | 14703 ft | 541 kts | 80° |
| 2026-04-24 21:30 | 56.54105 | 17.21813 | 13789 ft | 600 kts | 93° |
| 2026-04-24 21:30 | 56.51963 | 17.22300 | 15967 ft | 376 kts | 307° |
| 2026-04-24 21:31 | 56.52094 | 17.19430 | 16253 ft | 323 kts | 182° |
| 2026-04-24 21:31 | 56.51403 | 17.22307 | 15516 ft | 334 kts | 63° |
| 2026-04-24 21:31 | 56.52725 | 17.26808 | 14865 ft | 473 kts | 50° |
| 2026-04-24 21:31 | 56.55563 | 17.30566 | 11548 ft | 495 kts | 20° |
| 2026-04-24 21:32 | 56.59007 | 17.30548 | 5637 ft | 555 kts | 294° |
| 2026-04-24 21:32 | 56.59956 | 17.26204 | 14119 ft | 317 kts | 303° |
| 2026-04-24 21:32 | 56.61556 | 17.26445 | 18537 ft | 367 kts | 66° |
| 2026-04-24 21:32 | 56.61488 | 17.31313 | 19884 ft | 397 kts | 113° |
| 2026-04-24 21:33 | 56.59582 | 17.34575 | 22663 ft | 390 kts | 181° |
| 2026-04-24 21:33 | 56.58379 | 17.33035 | 18690 ft | 387 kts | 284° |
| 2026-04-24 21:33 | 56.62087 | 17.33400 | 16080 ft | 267 kts | 79° |
| 2026-04-24 21:33 | 56.62029 | 17.36355 | 24890 ft | 378 kts | 72° |
| 2026-04-24 21:34 | 56.62392 | 17.39906 | 24425 ft | 474 kts | 72° |
| 2026-04-24 21:34 | 56.63794 | 17.45857 | 18101 ft | 569 kts | 55° |
| 2026-04-24 21:34 | 56.66956 | 17.45317 | 12603 ft | 575 kts | 291° |
| 2026-04-24 21:34 | 56.65364 | 17.39127 | 11792 ft | 612 kts | 217° |
| 2026-04-24 21:35 | 56.61449 | 17.35777 | 10360 ft | 623 kts | 198° |
| 2026-04-24 21:35 | 56.57776 | 17.32927 | 13420 ft | 564 kts | 244° |
| 2026-04-24 21:35 | 56.57003 | 17.25901 | 14279 ft | 584 kts | 278° |
| 2026-04-24 21:35 | 56.59196 | 17.21866 | 12833 ft | 547 kts | 40° |
| 2026-04-24 21:36 | 56.60872 | 17.28512 | 11153 ft | 606 kts | 83° |
| 2026-04-24 21:36 | 56.60537 | 17.35569 | 7600 ft | 531 kts | 32° |
| 2026-04-24 21:36 | 56.62650 | 17.34036 | 11158 ft | 371 kts | 200° |
| 2026-04-24 21:36 | 56.61496 | 17.37117 | 10517 ft | 353 kts | 6° |
| 2026-04-24 21:37 | 56.62213 | 17.36466 | 13581 ft | 92 kts | 120° |
| 2026-04-24 21:37 | 56.61107 | 17.37864 | 13840 ft | 302 kts | 173° |
| 2026-04-24 21:37 | 56.58374 | 17.36657 | 12916 ft | 481 kts | 240° |
| 2026-04-24 21:37 | 56.59132 | 17.35967 | 14419 ft | 334 kts | 94° |
| 2026-04-24 21:38 | 56.57463 | 17.39913 | 8533 ft | 547 kts | 195° |
| 2026-04-24 21:38 | 56.57956 | 17.35024 | 5708 ft | 568 kts | 7° |
| 2026-04-24 21:38 | 56.57691 | 17.39796 | 6639 ft | 553 kts | 166° |
| 2026-04-24 21:38 | 56.55913 | 17.45510 | 6139 ft | 619 kts | 68° |
| 2026-04-24 21:39 | 56.59213 | 17.47976 | 8324 ft | 560 kts | 330° |
| 2026-04-24 21:39 | 56.62993 | 17.46446 | 6900 ft | 535 kts | 345° |
| 2026-04-24 21:39 | 56.65509 | 17.50554 | 7308 ft | 591 kts | 66° |
| 2026-04-24 21:39 | 56.67572 | 17.56927 | 9258 ft | 587 kts | 19° |
| 2026-04-24 21:40 | 56.69832 | 17.52632 | 9481 ft | 594 kts | 258° |
| 2026-04-24 21:40 | 56.67602 | 17.46236 | 10107 ft | 612 kts | 228° |
| 2026-04-24 21:40 | 56.64327 | 17.41397 | 10161 ft | 605 kts | 181° |
| 2026-04-24 21:40 | 56.62605 | 17.47438 | 8792 ft | 627 kts | 90° |
| 2026-04-24 21:41 | 56.60731 | 17.52006 | 3192 ft | 630 kts | 204° |
| 2026-04-24 21:41 | 56.59448 | 17.47104 | 10110 ft | 432 kts | 320° |
| 2026-04-24 21:41 | 56.60210 | 17.49766 | 8322 ft | 460 kts | 158° |
| 2026-04-24 21:41 | 56.59809 | 17.47436 | 6617 ft | 160 kts | 2° |
| 2026-04-24 21:42 | 56.60531 | 17.48601 | 10606 ft | 207 kts | 60° |
| 2026-04-24 21:42 | 56.60580 | 17.52785 | 10560 ft | 467 kts | 88° |
| 2026-04-24 21:42 | 56.61743 | 17.59504 | 9652 ft | 619 kts | 44° |
| 2026-04-24 21:42 | 56.65213 | 17.59120 | 7995 ft | 576 kts | 301° |
| 2026-04-24 21:43 | 56.68286 | 17.55235 | 9252 ft | 549 kts | 14° |
| 2026-04-24 21:43 | 56.68599 | 17.59495 | 10739 ft | 418 kts | 181° |
| 2026-04-24 21:43 | 56.65677 | 17.57989 | 9537 ft | 464 kts | 184° |
| 2026-04-24 21:43 | 56.64644 | 17.56637 | 13243 ft | 220 kts | 37° |
| 2026-04-24 21:44 | 56.64237 | 17.58900 | 10962 ft | 299 kts | 160° |
| 2026-04-24 21:44 | 56.61444 | 17.58254 | 7110 ft | 528 kts | 199° |
| 2026-04-24 21:44 | 56.59004 | 17.59927 | 10113 ft | 436 kts | 49° |
| 2026-04-24 21:44 | 56.61369 | 17.59021 | 11974 ft | 457 kts | 308° |
| 2026-04-24 21:45 | 56.61475 | 17.54935 | 15875 ft | 117 kts | 51° |
| 2026-04-24 21:45 | 56.62353 | 17.57314 | 18941 ft | 284 kts | 56° |
| 2026-04-24 21:45 | 56.61608 | 17.60410 | 15282 ft | 387 kts | 181° |
| 2026-04-24 21:45 | 56.58467 | 17.57290 | 11177 ft | 618 kts | 248° |
| 2026-04-24 21:46 | 56.58773 | 17.50000 | 11102 ft | 595 kts | 297° |
| 2026-04-24 21:46 | 56.61238 | 17.44029 | 14269 ft | 590 kts | 339° |
| 2026-04-24 21:46 | 56.64498 | 17.46246 | 8707 ft | 482 kts | 28° |
| 2026-04-24 21:46 | 56.67644 | 17.46030 | 9202 ft | 401 kts | 252° |
| 2026-04-24 21:47 | 56.65370 | 17.44979 | 10828 ft | 377 kts | 175° |
| 2026-04-24 21:47 | 56.62488 | 17.45666 | 11794 ft | 379 kts | 174° |
| 2026-04-24 21:47 | 56.62090 | 17.45871 | 16426 ft | 115 kts | 8° |
| 2026-04-24 21:47 | 56.62398 | 17.45825 | 13177 ft | 150 kts | 213° |
| 2026-04-24 21:48 | 56.60359 | 17.43364 | 9755 ft | 502 kts | 218° |
| 2026-04-24 21:48 | 56.57718 | 17.39898 | 13219 ft | 30 kts | 40° |
| 2026-04-24 21:48 | 56.58266 | 17.40256 | 11122 ft | 421 kts | 231° |
| 2026-04-24 21:48 | 56.56192 | 17.37589 | 11728 ft | 395 kts | 189° |
| 2026-04-24 21:49 | 56.55844 | 17.39908 | 11535 ft | 308 kts | 25° |
| 2026-04-24 21:49 | 56.58331 | 17.41673 | 11959 ft | 433 kts | 355° |
| 2026-04-24 21:49 | 56.61262 | 17.39264 | 14475 ft | 524 kts | 318° |
| 2026-04-24 21:49 | 56.63391 | 17.33541 | 15052 ft | 576 kts | 292° |
| 2026-04-24 21:50 | 56.64155 | 17.26348 | 14806 ft | 588 kts | 271° |
| 2026-04-24 21:50 | 56.63439 | 17.18997 | 14885 ft | 596 kts | 252° |
| 2026-04-24 21:50 | 56.61357 | 17.12502 | 14773 ft | 610 kts | 222° |
| 2026-04-24 21:50 | 56.57306 | 17.10308 | 14278 ft | 629 kts | 178° |
| 2026-04-24 21:51 | 56.52862 | 17.13007 | 13796 ft | 637 kts | 149° |
| 2026-04-24 21:51 | 56.49383 | 17.17005 | 12893 ft | 640 kts | 151° |
| 2026-04-24 21:51 | 56.45190 | 17.16996 | 12894 ft | 622 kts | 204° |
| 2026-04-24 21:51 | 56.41743 | 17.12659 | 13127 ft | 565 kts | 237° |
| 2026-04-24 21:52 | 56.40399 | 17.06624 | 16368 ft | 458 kts | 293° |
| 2026-04-24 21:52 | 56.42607 | 17.05335 | 16109 ft | 331 kts | 351° |
| 2026-04-24 21:52 | 56.44436 | 17.03771 | 15972 ft | 288 kts | 300° |
| 2026-04-24 21:52 | 56.43974 | 16.99968 | 15600 ft | 384 kts | 233° |
| 2026-04-24 21:53 | 56.41683 | 16.98010 | 15444 ft | 365 kts | 122° |
| 2026-04-24 21:53 | 56.41969 | 17.02038 | 15590 ft | 373 kts | 61° |
| 2026-04-24 21:53 | 56.42954 | 17.06079 | 15700 ft | 322 kts | 64° |
| 2026-04-24 21:53 | 56.43211 | 17.09427 | 18052 ft | 192 kts | 65° |
| 2026-04-24 21:54 | 56.43835 | 17.10593 | 17901 ft | 149 kts | 0° |
| 2026-04-24 21:54 | 56.44534 | 17.08524 | 17159 ft | 309 kts | 264° |
| 2026-04-24 21:54 | 56.43503 | 17.04111 | 16098 ft | 428 kts | 245° |
| 2026-04-24 21:54 | 56.42134 | 16.99541 | 15116 ft | 406 kts | 247° |
| 2026-04-24 21:55 | 56.40903 | 16.94935 | 15002 ft | 400 kts | 250° |
| 2026-04-24 21:55 | 56.39622 | 16.89837 | 15270 ft | 457 kts | 250° |
| 2026-04-24 21:55 | 56.38430 | 16.84914 | 15511 ft | 411 kts | 250° |
| 2026-04-24 21:55 | 56.37129 | 16.79860 | 15732 ft | 483 kts | 248° |
| 2026-04-24 21:56 | 56.35815 | 16.74441 | 15876 ft | 504 kts | 254° |
| 2026-04-24 21:56 | 56.34547 | 16.68478 | 15862 ft | 489 kts | 248° |
| 2026-04-24 21:56 | 56.32825 | 16.62998 | 15796 ft | 559 kts | 239° |
| 2026-04-24 21:56 | 56.30825 | 16.57454 | 15647 ft | 433 kts | 252° |
| 2026-04-24 21:57 | 56.29635 | 16.52570 | 15962 ft | 370 kts | 239° |
| 2026-04-24 21:57 | 56.27771 | 16.50092 | 16435 ft | 336 kts | 209° |
| 2026-04-24 21:57 | 56.26734 | 16.47080 | 15300 ft | 267 kts | 249° |
| 2026-04-24 21:57 | 56.26560 | 16.44482 | 14452 ft | 251 kts | 294° |
| 2026-04-24 21:58 | 56.27176 | 16.40083 | 13389 ft | 451 kts | 278° |
| 2026-04-24 21:58 | 56.27132 | 16.33833 | 12183 ft | 487 kts | 267° |
| 2026-04-24 21:58 | 56.26786 | 16.27960 | 11068 ft | 462 kts | 266° |
| 2026-04-24 21:58 | 56.26408 | 16.23395 | 11041 ft | 316 kts | 262° |
| 2026-04-24 21:59 | 56.26023 | 16.19389 | 10181 ft | 319 kts | 270° |
| 2026-04-24 21:59 | 56.25857 | 16.15895 | 8740 ft | 261 kts | 263° |
| 2026-04-24 21:59 | 56.25529 | 16.12177 | 8623 ft | 342 kts | 265° |
| 2026-04-24 21:59 | 56.25186 | 16.07850 | 8855 ft | 339 kts | 264° |
| 2026-04-24 22:00 | 56.24776 | 16.03740 | 8842 ft | 324 kts | 264° |
| 2026-04-24 22:00 | 56.24435 | 15.99698 | 8795 ft | 327 kts | 264° |
| 2026-04-24 22:00 | 56.24127 | 15.95643 | 8811 ft | 327 kts | 268° |
| 2026-04-24 22:00 | 56.23969 | 15.91616 | 8846 ft | 315 kts | 269° |
| 2026-04-24 22:01 | 56.23758 | 15.87584 | 8855 ft | 322 kts | 267° |
| 2026-04-24 22:01 | 56.23532 | 15.83520 | 8869 ft | 326 kts | 267° |
| 2026-04-24 22:01 | 56.23349 | 15.79467 | 8618 ft | 323 kts | 270° |
| 2026-04-24 22:01 | 56.23236 | 15.75407 | 8463 ft | 325 kts | 270° |
| 2026-04-24 22:02 | 56.23157 | 15.71363 | 7864 ft | 323 kts | 270° |
| 2026-04-24 22:02 | 56.23071 | 15.67393 | 6972 ft | 321 kts | 270° |
| 2026-04-24 22:02 | 56.23007 | 15.63324 | 6280 ft | 320 kts | 272° |
| 2026-04-24 22:02 | 56.23633 | 15.59544 | 5500 ft | 318 kts | 303° |
| 2026-04-24 22:03 | 56.24896 | 15.56391 | 4849 ft | 302 kts | 307° |
| 2026-04-24 22:03 | 56.26107 | 15.53295 | 4232 ft | 300 kts | 305° |
| 2026-04-24 22:03 | 56.27275 | 15.50147 | 3667 ft | 299 kts | 305° |
| 2026-04-24 22:03 | 56.28431 | 15.47033 | 2969 ft | 298 kts | 306° |
| 2026-04-24 22:04 | 56.29653 | 15.43973 | 2297 ft | 304 kts | 307° |
| 2026-04-24 22:04 | 56.30882 | 15.40932 | 2026 ft | 301 kts | 307° |
| 2026-04-24 22:04 | 56.32097 | 15.37896 | 2014 ft | 299 kts | 307° |
| 2026-04-24 22:04 | 56.33293 | 15.34894 | 2003 ft | 298 kts | 307° |
| 2026-04-24 22:05 | 56.34493 | 15.31881 | 1995 ft | 297 kts | 307° |
| 2026-04-24 22:05 | 56.35611 | 15.28780 | 2067 ft | 297 kts | 292° |
| 2026-04-24 22:05 | 56.35565 | 15.25101 | 1935 ft | 305 kts | 245° |
| 2026-04-24 22:05 | 56.34030 | 15.22462 | 1963 ft | 314 kts | 204° |
| 2026-04-24 22:06 | 56.31862 | 15.21726 | 2035 ft | 322 kts | 186° |
| 2026-04-24 22:06 | 56.29615 | 15.21379 | 2089 ft | 320 kts | 186° |
| 2026-04-24 22:06 | 56.27435 | 15.20898 | 2059 ft | 319 kts | 189° |
| 2026-04-24 22:06 | 56.25279 | 15.20304 | 1963 ft | 307 kts | 200° |
| 2026-04-24 22:07 | 56.23641 | 15.17902 | 1948 ft | 307 kts | 235° |
| 2026-04-24 22:07 | 56.22486 | 15.15078 | 1911 ft | 261 kts | 236° |
| 2026-04-24 22:07 | 56.21417 | 15.12479 | 2038 ft | 261 kts | 236° |
| 2026-04-24 22:07 | 56.20348 | 15.09875 | 2082 ft | 258 kts | 236° |
| 2026-04-24 22:08 | 56.19284 | 15.07284 | 2128 ft | 259 kts | 236° |
| 2026-04-24 22:08 | 56.18219 | 15.04688 | 2125 ft | 259 kts | 236° |
| 2026-04-24 22:08 | 56.17087 | 15.02205 | 2075 ft | 259 kts | 218° |
| 2026-04-24 22:08 | 56.15354 | 15.01272 | 2096 ft | 266 kts | 180° |
| 2026-04-24 22:09 | 56.13495 | 15.01015 | 2091 ft | 266 kts | 184° |
| 2026-04-24 22:09 | 56.11623 | 15.00838 | 2061 ft | 278 kts | 185° |
| 2026-04-24 22:09 | 56.09738 | 15.00649 | 2064 ft | 271 kts | 185° |
| 2026-04-24 22:09 | 56.07872 | 15.00463 | 2068 ft | 268 kts | 185° |
| 2026-04-24 22:10 | 56.06042 | 15.00566 | 2019 ft | 267 kts | 159° |
| 2026-04-24 22:10 | 56.04576 | 15.02584 | 2018 ft | 269 kts | 135° |
| 2026-04-24 22:10 | 56.03236 | 15.04903 | 2018 ft | 270 kts | 134° |
| 2026-04-24 22:10 | 56.01916 | 15.07230 | 2022 ft | 269 kts | 134° |
| 2026-04-24 22:11 | 56.00871 | 15.09926 | 2007 ft | 264 kts | 102° |
| 2026-04-24 22:11 | 56.00610 | 15.13180 | 2003 ft | 264 kts | 94° |
| 2026-04-24 22:11 | 56.00392 | 15.16436 | 1984 ft | 265 kts | 94° |
| 2026-04-24 22:11 | 56.00179 | 15.19698 | 1972 ft | 265 kts | 94° |
| 2026-04-24 22:12 | 55.99969 | 15.22937 | 1970 ft | 264 kts | 94° |
| 2026-04-24 22:12 | 55.99760 | 15.26184 | 1970 ft | 264 kts | 92° |
| 2026-04-24 22:12 | 56.00683 | 15.28461 | 1996 ft | 257 kts | 7° |
| 2026-04-24 22:12 | 56.02258 | 15.27531 | 1568 ft | 236 kts | 310° |
| 2026-04-24 22:13 | 56.02654 | 15.24650 | 2013 ft | 248 kts | 275° |
| 2026-04-24 22:13 | 56.02700 | 15.21465 | 1981 ft | 254 kts | 274° |
| 2026-04-24 22:13 | 56.02722 | 15.18319 | 1903 ft | 252 kts | 273° |
| 2026-04-24 22:13 | 56.02781 | 15.15228 | 1901 ft | 251 kts | 277° |
| 2026-04-24 22:14 | 56.02956 | 15.12152 | 1936 ft | 250 kts | 278° |
| 2026-04-24 22:14 | 56.03076 | 15.09054 | 1969 ft | 250 kts | 276° |
| 2026-04-24 22:14 | 56.03383 | 15.06062 | 1991 ft | 242 kts | 308° |
| 2026-04-24 22:14 | 56.04871 | 15.05246 | 2038 ft | 248 kts | 25° |
| 2026-04-24 22:15 | 56.05550 | 15.07987 | 2034 ft | 268 kts | 86° |